Time;durP1;ratioP1;P1;durP2;ratioP2;P2;SDS_P1;SDS_P2;PMS_P1;PMS_P2;Temp;Humidity;BMP_temperature;BMP_pressure;BME280_temperature;BME280_humidity;BME280_pressure;Samples;Min_cycle;Max_cycle;Signal;HPM_P1;HPM_P2
2024/03/02 00:00:11;;;;;;;58.25;30.25;;;;;;;;;;5033817;28;20091;-61
2024/03/02 00:02:44;;;;;;;55.20;29.17;;;;;;;;;;5033284;28;20108;-62
2024/03/02 00:05:14;;;;;;;55.03;29.48;;;;;;;;;;5033589;28;20092;-61
2024/03/02 00:07:41;;;;;;;62.63;31.40;;;;;;;;;;5034008;28;20091;-61
2024/03/02 00:10:08;;;;;;;60.78;30.63;;;;;;;;;;5034119;28;20069;-61
2024/03/02 00:12:33;;;;;;;67.00;31.60;;;;;;;;;;5033927;28;20120;-61
2024/03/02 00:15:02;;;;;;;58.47;31.20;;;;;;;;;;5034169;28;20184;-63
2024/03/02 00:17:29;;;;;;;67.47;32.92;;;;;;;;;;5033914;28;20041;-61
2024/03/02 00:19:55;;;;;;;61.47;32.63;;;;;;;;;;5032379;28;20544;-60
2024/03/02 00:22:20;;;;;;;69.00;31.95;;;;;;;;;;5032109;28;20041;-61
2024/03/02 00:24:46;;;;;;;66.80;32.30;;;;;;;;;;5033509;28;20041;-61
2024/03/02 00:27:12;;;;;;;66.95;31.95;;;;;;;;;;5033815;28;20042;-61
2024/03/02 00:29:40;;;;;;;60.42;32.03;;;;;;;;;;5033175;28;20068;-61
2024/03/02 00:32:11;;;;;;;58.72;29.92;;;;;;;;;;5032012;28;20414;-59
2024/03/02 00:34:37;;;;;;;61.22;31.17;;;;;;;;;;5032222;28;20033;-61
2024/03/02 00:37:02;;;;;;;63.08;31.00;;;;;;;;;;5032045;28;20048;-63
2024/03/02 00:39:28;;;;;;;60.05;30.70;;;;;;;;;;5033453;28;20048;-62
2024/03/02 00:41:53;;;;;;;62.50;31.63;;;;;;;;;;5033170;28;20048;-63
2024/03/02 00:44:20;;;;;;;65.75;31.83;;;;;;;;;;5033303;28;20086;-61
2024/03/02 00:46:46;;;;;;;60.88;30.83;;;;;;;;;;5031790;28;20083;-60
2024/03/02 00:49:11;;;;;;;61.03;31.02;;;;;;;;;;5033130;28;20144;-62
2024/03/02 00:51:37;;;;;;;60.17;30.50;;;;;;;;;;5033206;28;20037;-61
2024/03/02 00:54:08;;;;;;;60.55;32.38;;;;;;;;;;5032996;28;20095;-61
2024/03/02 00:56:34;;;;;;;59.42;31.70;;;;;;;;;;5032939;28;20061;-62
2024/03/02 00:59:00;;;;;;;67.45;32.28;;;;;;;;;;5032933;28;20045;-60
2024/03/02 01:01:25;;;;;;;62.92;30.58;;;;;;;;;;5031546;28;20036;-60
2024/03/02 01:03:51;;;;;;;60.60;31.70;;;;;;;;;;5031528;28;20085;-62
2024/03/02 01:06:17;;;;;;;58.97;31.75;;;;;;;;;;5032843;28;20041;-63
2024/03/02 01:08:43;;;;;;;58.72;30.55;;;;;;;;;;5032737;28;20130;-61
2024/03/02 01:11:08;;;;;;;62.10;31.73;;;;;;;;;;5032524;28;20033;-62
2024/03/02 01:13:34;;;;;;;60.05;31.30;;;;;;;;;;5031713;28;20128;-62
2024/03/02 01:15:59;;;;;;;60.00;30.65;;;;;;;;;;5032481;28;20056;-63
2024/03/02 01:18:25;;;;;;;59.58;32.47;;;;;;;;;;5031162;28;20110;-60
2024/03/02 01:20:57;;;;;;;62.15;31.52;;;;;;;;;;5032666;28;20048;-60
2024/03/02 01:23:23;;;;;;;65.95;34.72;;;;;;;;;;5031030;28;20126;-62
2024/03/02 01:25:48;;;;;;;64.00;32.75;;;;;;;;;;5031056;28;20460;-63
2024/03/02 01:28:14;;;;;;;62.90;32.63;;;;;;;;;;5032174;28;20095;-62
2024/03/02 01:30:40;;;;;;;66.63;32.97;;;;;;;;;;5014458;28;20045;-60
2024/03/02 01:33:06;;;;;;;71.40;35.00;;;;;;;;;;5032064;28;20041;-62
2024/03/02 01:35:32;;;;;;;60.72;31.42;;;;;;;;;;5032417;28;20109;-62
2024/03/02 01:37:57;;;;;;;60.20;31.67;;;;;;;;;;5031099;28;20041;-62
2024/03/02 01:40:26;;;;;;;60.63;31.67;;;;;;;;;;5032592;28;20487;-61
2024/03/02 01:42:52;;;;;;;59.50;32.30;;;;;;;;;;5032296;28;20037;-60
2024/03/02 01:45:17;;;;;;;63.83;32.42;;;;;;;;;;5032454;28;20525;-61
2024/03/02 01:47:43;;;;;;;67.72;32.03;;;;;;;;;;5031968;28;20129;-61
2024/03/02 01:50:11;;;;;;;63.50;31.08;;;;;;;;;;5032325;28;20045;-61
2024/03/02 01:52:36;;;;;;;63.65;30.83;;;;;;;;;;5031830;28;20090;-61
2024/03/02 01:55:03;;;;;;;62.47;31.55;;;;;;;;;;5030350;28;20129;-62
2024/03/02 01:57:29;;;;;;;61.13;31.60;;;;;;;;;;5030805;28;20029;-62
2024/03/02 01:59:54;;;;;;;60.72;31.00;;;;;;;;;;5032164;28;20514;-63
2024/03/02 02:02:20;;;;;;;63.03;30.40;;;;;;;;;;5031640;28;20072;-62
2024/03/02 02:04:45;;;;;;;59.03;32.53;;;;;;;;;;5032093;28;20136;-61
2024/03/02 02:07:11;;;;;;;58.80;31.33;;;;;;;;;;5031584;28;20033;-62
2024/03/02 02:09:37;;;;;;;68.47;33.30;;;;;;;;;;5030511;28;20049;-62
2024/03/02 02:12:04;;;;;;;65.40;32.15;;;;;;;;;;5031796;28;20037;-61
2024/03/02 02:14:30;;;;;;;61.22;31.30;;;;;;;;;;5029466;28;20048;-62
2024/03/02 02:16:55;;;;;;;64.20;30.85;;;;;;;;;;5031821;28;20034;-62
2024/03/02 02:19:21;;;;;;;56.75;30.58;;;;;;;;;;5031363;28;20595;-61
2024/03/02 02:21:46;;;;;;;61.13;30.48;;;;;;;;;;5030194;28;20040;-63
2024/03/02 02:24:13;;;;;;;63.00;32.10;;;;;;;;;;5031473;28;20051;-61
2024/03/02 02:26:39;;;;;;;64.25;31.48;;;;;;;;;;5030464;28;20037;-61
2024/03/02 02:29:04;;;;;;;58.65;30.42;;;;;;;;;;5029743;28;20544;-60
2024/03/02 02:31:39;;;;;;;60.03;31.13;;;;;;;;;;5030119;28;20540;-61
2024/03/02 02:34:05;;;;;;;61.75;31.17;;;;;;;;;;5031318;28;20051;-61
2024/03/02 02:36:31;;;;;;;60.08;30.40;;;;;;;;;;5031332;28;20128;-61
2024/03/02 02:38:57;;;;;;;57.55;31.20;;;;;;;;;;5031397;28;20513;-61
2024/03/02 02:41:23;;;;;;;59.15;30.02;;;;;;;;;;5029978;28;20033;-62
2024/03/02 02:43:48;;;;;;;61.22;32.05;;;;;;;;;;5031393;28;20034;-61
2024/03/02 02:46:13;;;;;;;65.97;32.20;;;;;;;;;;5012542;28;20044;-62
2024/03/02 02:48:39;;;;;;;64.57;31.08;;;;;;;;;;5031200;28;20041;-60
2024/03/02 02:51:04;;;;;;;63.45;32.13;;;;;;;;;;5031406;28;20044;-62
2024/03/02 02:53:30;;;;;;;66.15;31.90;;;;;;;;;;5030040;28;20038;-60
2024/03/02 02:55:55;;;;;;;68.45;31.73;;;;;;;;;;5031397;28;20380;-62
2024/03/02 02:58:21;;;;;;;64.57;31.10;;;;;;;;;;5013135;28;20044;-62
2024/03/02 03:00:46;;;;;;;61.92;31.73;;;;;;;;;;5029865;28;20033;-63
2024/03/02 03:03:12;;;;;;;66.20;31.65;;;;;;;;;;5030957;28;20518;-61
2024/03/02 03:05:37;;;;;;;62.95;31.17;;;;;;;;;;5030976;28;20025;-61
2024/03/02 03:08:03;;;;;;;64.53;30.92;;;;;;;;;;5030898;28;20115;-62
2024/03/02 03:10:28;;;;;;;63.88;30.85;;;;;;;;;;5031179;28;20056;-61
2024/03/02 03:12:55;;;;;;;64.60;32.10;;;;;;;;;;5030041;28;20561;-62
2024/03/02 03:15:21;;;;;;;67.43;33.00;;;;;;;;;;5031293;28;20509;-60
2024/03/02 03:17:47;;;;;;;66.38;31.48;;;;;;;;;;5030921;28;20041;-62
2024/03/02 03:20:12;;;;;;;67.32;33.08;;;;;;;;;;5029377;28;20613;-61
2024/03/02 03:22:38;;;;;;;65.78;33.33;;;;;;;;;;5031173;28;20108;-62
2024/03/02 03:25:04;;;;;;;67.63;34.25;;;;;;;;;;5013461;28;20033;-61
2024/03/02 03:27:30;;;;;;;71.82;36.47;;;;;;;;;;5030830;28;20517;-61
2024/03/02 03:29:55;;;;;;;69.45;34.58;;;;;;;;;;5029957;28;20061;-62
2024/03/02 03:32:21;;;;;;;72.47;35.72;;;;;;;;;;5030741;28;20042;-62
2024/03/02 03:34:47;;;;;;;66.15;34.90;;;;;;;;;;5029448;28;20044;-63
2024/03/02 03:37:13;;;;;;;70.35;35.00;;;;;;;;;;5032543;28;20048;-59
2024/03/02 03:39:38;;;;;;;65.75;35.88;;;;;;;;;;5016771;28;20033;-63
2024/03/02 03:42:04;;;;;;;64.47;34.05;;;;;;;;;;5034183;28;20511;-62
2024/03/02 03:44:29;;;;;;;67.25;33.47;;;;;;;;;;5034630;28;20380;-62
2024/03/02 03:46:55;;;;;;;63.97;33.13;;;;;;;;;;5033330;28;20514;-62
2024/03/02 03:49:20;;;;;;;70.28;35.13;;;;;;;;;;5016172;28;20095;-61
2024/03/02 03:51:46;;;;;;;63.53;32.35;;;;;;;;;;5034100;28;20041;-62
2024/03/02 03:54:11;;;;;;;72.55;34.88;;;;;;;;;;5034260;28;20052;-60
2024/03/02 03:56:37;;;;;;;68.45;35.42;;;;;;;;;;5034131;28;20103;-61
2024/03/02 03:59:03;;;;;;;67.20;35.67;;;;;;;;;;5034043;28;20041;-61
2024/03/02 04:01:28;;;;;;;67.45;32.50;;;;;;;;;;5033851;28;20514;-63
2024/03/02 04:03:54;;;;;;;64.90;32.85;;;;;;;;;;5034131;28;20049;-61
2024/03/02 04:06:20;;;;;;;62.47;32.08;;;;;;;;;;5033822;28;20483;-64
2024/03/02 04:08:45;;;;;;;66.28;33.22;;;;;;;;;;5033966;28;20499;-61
2024/03/02 04:11:11;;;;;;;66.22;33.88;;;;;;;;;;5033779;28;20068;-62
2024/03/02 04:13:36;;;;;;;61.13;32.38;;;;;;;;;;5033756;28;20115;-61
2024/03/02 04:16:03;;;;;;;66.10;34.80;;;;;;;;;;5033630;28;20037;-61
2024/03/02 04:18:29;;;;;;;71.60;34.10;;;;;;;;;;5032585;28;20048;-61
2024/03/02 04:20:54;;;;;;;68.57;34.88;;;;;;;;;;5015866;28;20037;-62
2024/03/02 04:23:20;;;;;;;72.85;35.13;;;;;;;;;;5032248;28;20128;-62
2024/03/02 04:25:45;;;;;;;68.25;35.10;;;;;;;;;;5032483;28;20033;-62
2024/03/02 04:28:12;;;;;;;61.13;32.40;;;;;;;;;;5031855;28;20116;-61
2024/03/02 04:30:37;;;;;;;68.57;35.85;;;;;;;;;;5033180;28;20091;-60
2024/03/02 04:33:03;;;;;;;71.18;34.78;;;;;;;;;;5032246;28;20033;-62
2024/03/02 04:35:29;;;;;;;74.40;35.67;;;;;;;;;;5033181;28;20419;-63
2024/03/02 04:37:54;;;;;;;65.88;35.60;;;;;;;;;;5032281;28;20037;-62
2024/03/02 04:40:20;;;;;;;72.97;35.20;;;;;;;;;;5033475;28;20195;-60
2024/03/02 04:42:45;;;;;;;74.57;37.50;;;;;;;;;;5032869;28;20041;-61
2024/03/02 04:45:10;;;;;;;70.00;36.70;;;;;;;;;;5033562;28;20108;-62
2024/03/02 04:47:36;;;;;;;69.78;35.25;;;;;;;;;;5032949;28;20091;-62
2024/03/02 04:50:01;;;;;;;66.95;35.78;;;;;;;;;;5033283;28;20060;-62
2024/03/02 04:52:27;;;;;;;68.57;36.40;;;;;;;;;;5031723;28;20029;-62
2024/03/02 04:57:37;;;;;;;73.50;37.60;;;;;;;;;;5033134;28;20042;-63
2024/03/02 05:00:06;;;;;;;74.38;37.47;;;;;;;;;;5031637;28;20041;-62
2024/03/02 05:02:32;;;;;;;67.57;35.83;;;;;;;;;;5032806;28;20037;-62
2024/03/02 05:04:57;;;;;;;69.28;34.60;;;;;;;;;;5033006;28;20047;-62
2024/03/02 05:07:23;;;;;;;70.60;35.50;;;;;;;;;;5030824;28;20435;-60
2024/03/02 05:09:48;;;;;;;66.10;32.45;;;;;;;;;;5032816;28;20046;-62
2024/03/02 05:14:58;;;;;;;59.42;31.25;;;;;;;;;;5033018;28;20029;-62
2024/03/02 05:17:23;;;;;;;61.33;33.22;;;;;;;;;;5031165;28;20072;-61
2024/03/02 05:19:49;;;;;;;61.70;32.33;;;;;;;;;;5031406;28;20038;-62
2024/03/02 05:22:14;;;;;;;61.10;33.42;;;;;;;;;;5032396;28;20060;-62
2024/03/02 05:24:40;;;;;;;70.88;34.42;;;;;;;;;;5032715;28;20034;-62
2024/03/02 05:27:07;;;;;;;67.57;34.75;;;;;;;;;;5032231;28;20080;-61
2024/03/02 05:29:32;;;;;;;60.95;33.85;;;;;;;;;;5030697;28;20160;-62
2024/03/02 05:31:58;;;;;;;60.80;33.58;;;;;;;;;;5032171;28;20112;-64
2024/03/02 05:34:23;;;;;;;65.55;35.35;;;;;;;;;;5032306;28;20046;-62
2024/03/02 05:36:49;;;;;;;62.65;34.80;;;;;;;;;;5032396;28;20499;-62
2024/03/02 05:39:15;;;;;;;66.25;34.38;;;;;;;;;;5031078;28;20065;-60
2024/03/02 05:41:41;;;;;;;60.83;32.50;;;;;;;;;;5032055;28;20049;-63
2024/03/02 05:44:06;;;;;;;67.22;35.80;;;;;;;;;;5030780;28;20041;-61
2024/03/02 05:46:32;;;;;;;63.63;34.38;;;;;;;;;;5031999;28;20124;-62
2024/03/02 05:48:59;;;;;;;64.45;35.22;;;;;;;;;;5031967;28;20081;-62
2024/03/02 05:51:24;;;;;;;57.30;33.50;;;;;;;;;;5031800;28;20051;-63
2024/03/02 05:53:50;;;;;;;66.45;35.38;;;;;;;;;;5030470;28;20037;-62
2024/03/02 05:56:15;;;;;;;69.53;35.60;;;;;;;;;;5030557;28;20116;-61
2024/03/02 06:01:28;;;;;;;63.05;34.58;;;;;;;;;;5031722;28;20048;-60
2024/03/02 06:03:54;;;;;;;66.28;36.40;;;;;;;;;;5031815;28;20057;-60
2024/03/02 06:06:20;;;;;;;67.20;36.10;;;;;;;;;;5031476;28;20037;-61
2024/03/02 06:08:46;;;;;;;66.50;35.42;;;;;;;;;;5031544;28;20037;-61
2024/03/02 06:11:11;;;;;;;71.03;39.25;;;;;;;;;;5030449;28;20048;-61
2024/03/02 06:13:37;;;;;;;62.55;34.28;;;;;;;;;;5030360;28;20037;-62
2024/03/02 06:16:03;;;;;;;67.68;33.95;;;;;;;;;;5031525;28;20037;-65
2024/03/02 06:18:28;;;;;;;64.57;34.25;;;;;;;;;;5031458;28;20044;-61
2024/03/02 06:20:54;;;;;;;64.25;34.65;;;;;;;;;;5031415;28;20029;-61
2024/03/02 06:23:19;;;;;;;65.07;33.90;;;;;;;;;;5029949;28;20120;-60
2024/03/02 06:25:45;;;;;;;65.80;33.95;;;;;;;;;;5030114;28;20124;-62
2024/03/02 06:28:12;;;;;;;67.22;34.38;;;;;;;;;;5031022;28;20061;-60
2024/03/02 06:30:37;;;;;;;60.70;31.60;;;;;;;;;;5031340;28;20068;-59
2024/03/02 06:33:11;;;;;;;58.70;32.17;;;;;;;;;;5031635;28;20021;-62
2024/03/02 06:35:41;;;;;;;60.05;33.25;;;;;;;;;;4995120;28;20037;-62
2024/03/02 06:38:06;;;;;;;66.57;34.05;;;;;;;;;;5030716;28;20416;-59
2024/03/02 06:40:32;;;;;;;62.20;33.92;;;;;;;;;;4996563;28;20132;-63
2024/03/02 06:42:57;;;;;;;61.25;33.03;;;;;;;;;;5029828;28;20042;-61
2024/03/02 06:45:23;;;;;;;60.63;33.45;;;;;;;;;;5030193;28;20044;-61
2024/03/02 06:47:48;;;;;;;59.90;32.90;;;;;;;;;;5030919;28;20503;-60
2024/03/02 06:50:14;;;;;;;66.10;33.75;;;;;;;;;;5031315;28;20084;-61
2024/03/02 06:52:39;;;;;;;62.95;32.42;;;;;;;;;;5029527;28;20120;-60
2024/03/02 06:55:05;;;;;;;65.03;33.65;;;;;;;;;;5029821;28;20041;-60
2024/03/02 06:57:31;;;;;;;63.10;35.25;;;;;;;;;;5029667;28;20410;-61
2024/03/02 06:59:58;;;;;;;61.47;33.58;;;;;;;;;;5029921;28;20046;-61
2024/03/02 07:02:25;;;;;;;73.30;35.13;;;;;;;;;;5031120;28;20133;-62
2024/03/02 07:04:51;;;;;;;62.22;33.35;;;;;;;;;;5029905;28;20083;-61
2024/03/02 07:07:16;;;;;;;60.83;34.53;;;;;;;;;;5030911;28;20033;-61
2024/03/02 07:09:42;;;;;;;61.08;33.10;;;;;;;;;;5031217;28;20061;-61
2024/03/02 07:12:07;;;;;;;71.03;35.13;;;;;;;;;;5031708;28;20025;-58
2024/03/02 07:17:17;;;;;;;60.97;33.05;;;;;;;;;;5034867;28;20044;-61
2024/03/02 07:19:42;;;;;;;61.22;32.67;;;;;;;;;;5033510;28;20371;-60
2024/03/02 07:22:08;;;;;;;65.55;34.35;;;;;;;;;;5033430;28;20036;-62
2024/03/02 07:24:43;;;;;;;66.65;33.90;;;;;;;;;;5034851;28;20042;-62
2024/03/02 07:27:09;;;;;;;61.08;34.28;;;;;;;;;;5034384;28;20044;-61
2024/03/02 07:29:34;;;;;;;71.13;33.67;;;;;;;;;;5033004;28;20062;-62
2024/03/02 07:32:00;;;;;;;69.65;34.35;;;;;;;;;;5015968;28;20120;-61
2024/03/02 07:34:25;;;;;;;68.43;35.45;;;;;;;;;;5032969;28;20132;-60
2024/03/02 07:36:51;;;;;;;75.38;37.47;;;;;;;;;;5033236;28;20057;-62
2024/03/02 07:39:17;;;;;;;74.72;37.22;;;;;;;;;;5032367;28;20029;-63
2024/03/02 07:41:43;;;;;;;71.38;38.67;;;;;;;;;;5034288;28;20030;-62
2024/03/02 07:44:09;;;;;;;70.90;37.92;;;;;;;;;;5032978;28;20029;-59
2024/03/02 07:46:34;;;;;;;72.32;39.80;;;;;;;;;;5034159;28;20529;-61
2024/03/02 07:49:00;;;;;;;70.18;37.83;;;;;;;;;;5032962;28;20099;-64
2024/03/02 07:51:26;;;;;;;69.82;37.33;;;;;;;;;;5034036;28;20039;-61
2024/03/02 07:53:51;;;;;;;72.80;38.08;;;;;;;;;;5033691;28;20506;-62
2024/03/02 07:56:22;;;;;;;71.30;38.28;;;;;;;;;;5032153;28;20061;-61
2024/03/02 07:58:48;;;;;;;75.45;37.42;;;;;;;;;;5032876;28;20052;-61
2024/03/02 08:01:14;;;;;;;67.28;34.95;;;;;;;;;;5033981;28;20071;-61
2024/03/02 08:03:40;;;;;;;73.97;37.65;;;;;;;;;;5034116;28;20037;-61
2024/03/02 08:06:06;;;;;;;73.78;37.33;;;;;;;;;;5012430;28;20029;-58
2024/03/02 08:08:31;;;;;;;70.25;37.38;;;;;;;;;;5014667;28;20156;-60
2024/03/02 08:10:57;;;;;;;71.70;37.05;;;;;;;;;;4997888;28;20133;-61
2024/03/02 08:13:23;;;;;;;76.72;37.63;;;;;;;;;;5013837;28;20099;-60
2024/03/02 08:15:48;;;;;;;74.28;37.92;;;;;;;;;;5013931;28;20077;-61
2024/03/02 08:18:14;;;;;;;70.53;36.92;;;;;;;;;;5045885;28;20037;-63
2024/03/02 08:20:40;;;;;;;74.30;38.33;;;;;;;;;;5013856;28;20038;-64
2024/03/02 08:23:06;;;;;;;66.95;36.65;;;;;;;;;;5030959;28;20132;-63
2024/03/02 08:25:31;;;;;;;66.47;35.42;;;;;;;;;;5032343;28;20546;-63
2024/03/02 08:27:57;;;;;;;71.15;37.58;;;;;;;;;;5033421;28;20255;-64
2024/03/02 08:30:23;;;;;;;62.72;34.47;;;;;;;;;;5032029;28;20069;-62
2024/03/02 08:32:48;;;;;;;70.78;36.38;;;;;;;;;;5033232;28;20518;-60
2024/03/02 08:35:14;;;;;;;68.20;36.28;;;;;;;;;;5033702;28;20052;-62
2024/03/02 08:37:41;;;;;;;62.15;32.92;;;;;;;;;;5033291;28;20044;-62
2024/03/02 08:40:07;;;;;;;66.20;34.53;;;;;;;;;;5031876;28;20033;-60
2024/03/02 08:42:33;;;;;;;67.63;34.95;;;;;;;;;;5033202;28;20406;-61
2024/03/02 08:45:00;;;;;;;59.90;32.35;;;;;;;;;;5032643;28;20534;-59
2024/03/02 08:47:27;;;;;;;58.83;33.35;;;;;;;;;;5033018;28;20415;-62
2024/03/02 08:49:52;;;;;;;60.13;31.50;;;;;;;;;;5033315;28;20517;-62
2024/03/02 08:52:18;;;;;;;67.70;33.88;;;;;;;;;;5032968;28;20049;-61
2024/03/02 08:54:43;;;;;;;61.80;33.22;;;;;;;;;;5032897;28;20055;-62
2024/03/02 08:57:09;;;;;;;64.47;32.75;;;;;;;;;;5033129;28;20380;-62
2024/03/02 08:59:35;;;;;;;65.28;32.58;;;;;;;;;;5032895;28;20564;-62
2024/03/02 09:02:00;;;;;;;59.55;33.47;;;;;;;;;;5032718;28;20037;-61
2024/03/02 09:04:26;;;;;;;64.55;31.30;;;;;;;;;;5033021;28;20391;-63
2024/03/02 09:06:51;;;;;;;65.35;34.88;;;;;;;;;;5031557;28;20615;-60
2024/03/02 09:09:17;;;;;;;57.72;29.75;;;;;;;;;;5032845;28;20037;-60
2024/03/02 09:11:43;;;;;;;57.45;31.08;;;;;;;;;;5032942;28;20124;-63
2024/03/02 09:14:08;;;;;;;59.75;30.20;;;;;;;;;;5032765;28;20037;-59
2024/03/02 09:16:34;;;;;;;53.80;31.60;;;;;;;;;;5032351;28;20042;-61
2024/03/02 09:19:00;;;;;;;54.35;31.30;;;;;;;;;;5032605;28;20034;-62
2024/03/02 09:21:25;;;;;;;59.38;31.88;;;;;;;;;;5032683;28;20064;-60
2024/03/02 09:23:51;;;;;;;57.58;30.52;;;;;;;;;;5031063;28;20487;-60
2024/03/02 09:26:16;;;;;;;61.70;33.28;;;;;;;;;;5032118;28;20037;-60
2024/03/02 09:28:45;;;;;;;58.92;29.85;;;;;;;;;;5030899;28;20065;-57
2024/03/02 09:31:11;;;;;;;52.13;29.65;;;;;;;;;;5014330;28;20041;-57
2024/03/02 09:33:38;;;;;;;50.13;27.65;;;;;;;;;;5031976;28;20049;-58
2024/03/02 09:36:04;;;;;;;58.38;28.42;;;;;;;;;;5028316;28;20087;-61
2024/03/02 09:38:31;;;;;;;49.83;26.83;;;;;;;;;;5055398;28;20045;-59
2024/03/02 09:40:57;;;;;;;52.28;28.75;;;;;;;;;;5030283;28;20036;-58
2024/03/02 09:43:23;;;;;;;51.05;28.33;;;;;;;;;;5031568;28;20049;-60
2024/03/02 09:45:48;;;;;;;47.25;25.95;;;;;;;;;;5031976;28;20480;-59
2024/03/02 09:48:18;;;;;;;53.08;28.10;;;;;;;;;;5014055;28;20033;-60
2024/03/02 09:50:43;;;;;;;48.53;27.00;;;;;;;;;;5031857;28;20110;-61
2024/03/02 09:53:10;;;;;;;53.90;27.80;;;;;;;;;;5031792;28;20033;-54
2024/03/02 09:55:35;;;;;;;50.72;28.30;;;;;;;;;;5031676;28;20245;-59
2024/03/02 09:58:01;;;;;;;52.90;28.15;;;;;;;;;;5031794;28;20044;-60
2024/03/02 10:00:26;;;;;;;54.33;27.45;;;;;;;;;;5032046;28;20040;-60
2024/03/02 10:02:52;;;;;;;51.63;27.15;;;;;;;;;;5013933;28;20411;-61
2024/03/02 10:05:28;;;;;;;53.20;28.13;;;;;;;;;;5032172;28;20130;-61
2024/03/02 10:08:01;;;;;;;50.63;26.48;;;;;;;;;;5030365;28;20040;-60
2024/03/02 10:10:34;;;;;;;52.22;26.10;;;;;;;;;;5031305;28;20103;-58
2024/03/02 10:13:09;;;;;;;44.15;25.95;;;;;;;;;;5012883;28;20021;-60
2024/03/02 10:15:37;;;;;;;49.30;28.25;;;;;;;;;;5029215;28;20029;-60
2024/03/02 10:18:03;;;;;;;49.65;26.80;;;;;;;;;;5028583;28;20128;-61
2024/03/02 10:20:33;;;;;;;49.08;25.90;;;;;;;;;;5030034;28;20083;-59
2024/03/02 10:23:20;;;;;;;47.75;26.65;;;;;;;;;;5031194;28;20511;-59
2024/03/02 10:25:47;;;;;;;49.83;27.40;;;;;;;;;;4997108;28;20037;-60
2024/03/02 10:28:15;;;;;;;51.08;26.67;;;;;;;;;;4996890;28;20044;-59
2024/03/02 10:30:40;;;;;;;61.22;27.70;;;;;;;;;;5026095;28;20077;-61
2024/03/02 10:33:06;;;;;;;53.35;28.23;;;;;;;;;;5029737;28;20064;-59
2024/03/02 10:35:32;;;;;;;57.45;28.70;;;;;;;;;;5031248;28;20055;-59
2024/03/02 10:38:00;;;;;;;54.25;28.60;;;;;;;;;;5030689;28;20044;-58
2024/03/02 10:40:26;;;;;;;51.78;27.20;;;;;;;;;;5029611;28;20060;-61
2024/03/02 10:42:53;;;;;;;50.50;27.20;;;;;;;;;;5030011;28;20411;-61
2024/03/02 10:45:23;;;;;;;54.83;28.38;;;;;;;;;;5013558;28;20040;-62
2024/03/02 10:47:49;;;;;;;53.63;27.50;;;;;;;;;;5029508;28;20068;-62
2024/03/02 10:50:15;;;;;;;50.88;28.15;;;;;;;;;;5034015;28;20045;-60
2024/03/02 10:52:41;;;;;;;51.53;27.42;;;;;;;;;;5034250;28;20041;-62
2024/03/02 10:55:09;;;;;;;56.90;26.60;;;;;;;;;;5034303;28;20041;-61
2024/03/02 10:57:42;;;;;;;49.70;28.20;;;;;;;;;;5032983;28;20128;-62
2024/03/02 11:00:14;;;;;;;49.53;27.20;;;;;;;;;;5034032;28;20419;-61
2024/03/02 11:02:46;;;;;;;49.42;25.50;;;;;;;;;;5033726;28;20041;-64
2024/03/02 11:05:14;;;;;;;43.42;25.10;;;;;;;;;;5035519;28;20112;-63
2024/03/02 11:07:40;;;;;;;45.83;25.88;;;;;;;;;;5042535;28;20051;-63
2024/03/02 11:10:08;;;;;;;49.28;26.65;;;;;;;;;;5044103;28;20483;-62
2024/03/02 11:12:44;;;;;;;47.33;26.60;;;;;;;;;;5034042;28;20026;-62
2024/03/02 11:15:17;;;;;;;47.50;25.77;;;;;;;;;;5035118;28;20045;-62
2024/03/02 11:17:43;;;;;;;45.33;25.20;;;;;;;;;;5034678;28;20030;-63
2024/03/02 11:20:09;;;;;;;49.35;26.15;;;;;;;;;;5035031;28;20037;-62
2024/03/02 11:22:35;;;;;;;47.83;25.25;;;;;;;;;;5033229;28;20036;-62
2024/03/02 11:25:01;;;;;;;50.60;27.98;;;;;;;;;;5035002;28;20223;-62
2024/03/02 11:27:46;;;;;;;46.33;25.30;;;;;;;;;;5034651;28;20034;-65
2024/03/02 11:30:30;;;;;;;49.40;25.25;;;;;;;;;;5032934;28;20069;-63
2024/03/02 11:32:56;;;;;;;49.13;25.17;;;;;;;;;;5033037;28;20490;-63
2024/03/02 11:35:22;;;;;;;43.90;24.58;;;;;;;;;;5030688;28;20124;-65
2024/03/02 11:37:48;;;;;;;41.95;24.52;;;;;;;;;;5031350;28;20068;-60
2024/03/02 11:40:13;;;;;;;47.17;24.98;;;;;;;;;;5016370;28;20499;-62
2024/03/02 11:42:39;;;;;;;54.15;26.58;;;;;;;;;;5034227;28;20120;-64
2024/03/02 11:45:08;;;;;;;47.45;24.88;;;;;;;;;;5034367;28;20064;-63
2024/03/02 11:47:34;;;;;;;48.45;26.02;;;;;;;;;;5033669;28;20033;-65
2024/03/02 11:49:59;;;;;;;46.97;26.02;;;;;;;;;;5032891;28;20062;-66
2024/03/02 11:52:25;;;;;;;52.42;27.27;;;;;;;;;;5033925;28;20037;-64
2024/03/02 11:54:51;;;;;;;51.33;27.83;;;;;;;;;;5034339;28;20042;-64
2024/03/02 11:57:19;;;;;;;49.22;27.27;;;;;;;;;;5014795;28;20026;-61
2024/03/02 11:59:44;;;;;;;47.13;27.27;;;;;;;;;;5034358;28;20498;-62
2024/03/02 12:02:17;;;;;;;50.40;27.88;;;;;;;;;;5032173;28;20079;-61
2024/03/02 12:04:44;;;;;;;54.10;27.48;;;;;;;;;;5032796;28;20042;-61
2024/03/02 12:07:10;;;;;;;53.40;28.65;;;;;;;;;;5032143;28;20051;-60
2024/03/02 12:09:36;;;;;;;51.83;27.67;;;;;;;;;;5033922;28;20095;-61
2024/03/02 12:12:06;;;;;;;50.45;28.27;;;;;;;;;;5033498;28;20033;-60
2024/03/02 12:14:32;;;;;;;48.65;27.05;;;;;;;;;;5032204;28;20043;-60
2024/03/02 12:17:01;;;;;;;50.08;26.80;;;;;;;;;;4998219;28;20041;-62
2024/03/02 12:19:27;;;;;;;55.17;27.70;;;;;;;;;;5033474;28;20045;-59
2024/03/02 12:21:59;;;;;;;53.03;27.30;;;;;;;;;;5015590;28;20130;-62
2024/03/02 12:24:27;;;;;;;52.47;27.88;;;;;;;;;;5032198;28;20076;-61
2024/03/02 12:26:53;;;;;;;52.08;27.80;;;;;;;;;;5033287;28;20033;-62
2024/03/02 12:29:19;;;;;;;51.75;27.30;;;;;;;;;;5031748;28;20530;-65
2024/03/02 12:31:47;;;;;;;50.55;28.10;;;;;;;;;;5033334;28;20042;-64
2024/03/02 12:34:13;;;;;;;45.67;26.20;;;;;;;;;;5033014;28;20037;-60
2024/03/02 12:36:39;;;;;;;47.22;25.05;;;;;;;;;;5031501;28;20088;-61
2024/03/02 12:39:05;;;;;;;45.00;25.85;;;;;;;;;;5032806;28;20526;-62
2024/03/02 12:41:30;;;;;;;51.30;26.08;;;;;;;;;;5032961;28;20033;-61
2024/03/02 12:43:56;;;;;;;50.08;26.40;;;;;;;;;;5032906;28;20033;-62
2024/03/02 12:46:21;;;;;;;51.63;27.92;;;;;;;;;;5032807;28;20044;-65
2024/03/02 12:48:47;;;;;;;51.10;25.05;;;;;;;;;;5031290;28;20037;-61
2024/03/02 12:51:12;;;;;;;47.53;25.92;;;;;;;;;;5032690;28;20077;-62
2024/03/02 12:53:38;;;;;;;50.83;28.25;;;;;;;;;;5032778;28;20564;-56
2024/03/02 12:56:05;;;;;;;49.35;25.65;;;;;;;;;;5031530;28;20040;-63
2024/03/02 12:58:38;;;;;;;50.78;25.75;;;;;;;;;;5015004;28;20102;-55
2024/03/02 13:01:08;;;;;;;40.33;24.20;;;;;;;;;;5032796;28;20037;-60
2024/03/02 13:03:40;;;;;;;51.03;25.23;;;;;;;;;;5032439;28;20526;-60
2024/03/02 13:06:07;;;;;;;46.85;25.27;;;;;;;;;;5032629;28;20033;-63
2024/03/02 13:08:33;;;;;;;44.72;24.98;;;;;;;;;;5032163;28;20087;-60
2024/03/02 13:10:58;;;;;;;43.60;24.90;;;;;;;;;;5031682;28;20137;-62
2024/03/02 13:13:24;;;;;;;41.90;24.98;;;;;;;;;;5032405;28;20132;-60
2024/03/02 13:15:49;;;;;;;50.05;24.80;;;;;;;;;;5032594;28;20115;-61
2024/03/02 13:18:17;;;;;;;45.35;25.02;;;;;;;;;;5032008;28;20034;-63
2024/03/02 13:20:43;;;;;;;47.65;25.67;;;;;;;;;;5031479;28;20041;-62
2024/03/02 13:23:08;;;;;;;42.80;24.45;;;;;;;;;;5031769;28;20086;-62
2024/03/02 13:25:34;;;;;;;43.03;23.52;;;;;;;;;;5014586;28;20033;-63
2024/03/02 13:28:00;;;;;;;50.28;26.35;;;;;;;;;;5031902;28;20950;-63
2024/03/02 13:30:26;;;;;;;49.05;26.00;;;;;;;;;;5031917;28;20426;-62
2024/03/02 13:32:51;;;;;;;43.83;25.10;;;;;;;;;;5031956;28;20044;-61
2024/03/02 13:35:16;;;;;;;47.83;27.45;;;;;;;;;;5032457;28;20136;-63
2024/03/02 13:37:42;;;;;;;46.53;27.88;;;;;;;;;;5032080;28;20044;-62
2024/03/02 13:40:12;;;;;;;46.03;24.92;;;;;;;;;;5032150;28;20096;-63
2024/03/02 13:42:38;;;;;;;44.72;27.27;;;;;;;;;;5031712;28;20565;-62
2024/03/02 13:45:05;;;;;;;44.15;25.45;;;;;;;;;;5030305;28;20327;-62
2024/03/02 13:47:30;;;;;;;48.80;26.00;;;;;;;;;;5031884;28;20492;-61
2024/03/02 13:49:56;;;;;;;47.55;25.63;;;;;;;;;;5032139;28;20053;-62
2024/03/02 13:52:21;;;;;;;48.97;26.67;;;;;;;;;;5031947;28;20048;-63
2024/03/02 13:54:47;;;;;;;45.70;25.83;;;;;;;;;;5029896;28;20045;-65
2024/03/02 13:57:13;;;;;;;47.40;25.83;;;;;;;;;;5030760;28;20041;-59
2024/03/02 13:59:39;;;;;;;48.08;27.45;;;;;;;;;;5030518;28;20490;-62
2024/03/02 14:02:05;;;;;;;47.45;26.30;;;;;;;;;;5031878;28;20403;-62
2024/03/02 14:04:31;;;;;;;53.38;28.70;;;;;;;;;;5013929;28;20041;-61
2024/03/02 14:06:57;;;;;;;47.90;27.13;;;;;;;;;;5031651;28;20049;-64
2024/03/02 14:09:23;;;;;;;51.40;27.25;;;;;;;;;;5030211;28;20155;-60
2024/03/02 14:11:50;;;;;;;48.33;27.63;;;;;;;;;;5031531;28;20467;-63
2024/03/02 14:14:15;;;;;;;47.10;27.02;;;;;;;;;;5030172;28;20082;-63
2024/03/02 14:16:41;;;;;;;47.22;26.35;;;;;;;;;;5031407;28;20445;-64
2024/03/02 14:19:06;;;;;;;40.40;24.00;;;;;;;;;;5031490;28;20048;-62
2024/03/02 14:21:32;;;;;;;46.17;26.20;;;;;;;;;;5030738;28;20453;-62